Time;durP1;ratioP1;P1;durP2;ratioP2;P2;SDS_P1;SDS_P2;PMS_P1;PMS_P2;Temp;Humidity;BMP_temperature;BMP_pressure;BME280_temperature;BME280_humidity;BME280_pressure;Samples;Min_cycle;Max_cycle;Signal;HPM_P1;HPM_P2
2022/10/04 00:02:00;;;;;;;0.13;0.10;;;;;;;10.52;100.00;100528.44;6244899;22;20506;-86
2022/10/04 00:04:29;;;;;;;4.22;1.55;;;;;;;10.46;100.00;100535.69;6245336;23;20544;-85
2022/10/04 00:06:57;;;;;;;0.00;0.00;;;;;;;10.25;100.00;100512.69;6244831;23;20012;-84
2022/10/04 00:09:25;;;;;;;0.00;0.00;;;;;;;10.33;100.00;100526.41;6218023;23;20018;-85
2022/10/04 00:11:53;;;;;;;0.20;0.20;;;;;;;10.39;100.00;100538.59;6218015;23;20011;-84
2022/10/04 00:14:24;;;;;;;0.60;0.55;;;;;;;10.35;100.00;100524.81;6217696;23;20083;-76
2022/10/04 00:16:50;;;;;;;0.15;0.10;;;;;;;10.39;100.00;100519.19;6217549;23;20485;-76
2022/10/04 00:19:16;;;;;;;0.43;0.38;;;;;;;10.50;100.00;100525.31;6217392;23;20009;-76
2022/10/04 00:21:51;;;;;;;0.08;0.08;;;;;;;10.51;100.00;100524.13;6244156;23;20033;-76
2022/10/04 00:24:22;;;;;;;2.22;0.65;;;;;;;10.37;100.00;100516.06;6242343;23;20004;-76
2022/10/04 00:26:47;;;;;;;0.60;0.30;;;;;;;10.31;100.00;100523.31;6241283;23;20012;-76
2022/10/04 00:29:25;;;;;;;0.28;0.28;;;;;;;10.28;100.00;100514.59;6243958;23;20457;-76
2022/10/04 00:32:24;;;;;;;0.20;0.20;;;;;;;10.24;100.00;100502.81;6242990;23;20041;-85
2022/10/04 00:34:51;;;;;;;0.30;0.30;;;;;;;10.33;100.00;100499.47;6161515;23;20020;-76
2022/10/04 00:37:18;;;;;;;0.00;0.00;;;;;;;10.43;100.00;100494.94;6213955;23;20012;-76
2022/10/04 00:39:45;;;;;;;0.28;0.28;;;;;;;10.51;100.00;100490.84;6216345;23;20016;-76
2022/10/04 00:42:14;;;;;;;0.17;0.17;;;;;;;10.62;100.00;100496.97;6242138;23;20443;-76
2022/10/04 00:44:46;;;;;;;0.55;0.55;;;;;;;10.62;100.00;100494.19;6242307;23;20015;-76
2022/10/04 00:47:33;;;;;;;0.10;0.10;;;;;;;10.74;100.00;100501.88;6216708;23;20331;-76
2022/10/04 00:50:42;;;;;;;0.45;0.45;;;;;;;10.79;100.00;100503.38;6215968;23;20012;-77
2022/10/04 00:53:17;;;;;;;0.10;0.10;;;;;;;10.78;100.00;100508.13;6240417;23;20078;-86
2022/10/04 00:55:48;;;;;;;1.45;0.50;;;;;;;10.74;100.00;100496.31;6217741;23;20019;-86
2022/10/04 00:58:23;;;;;;;0.00;0.00;;;;;;;10.77;100.00;100492.69;6214991;23;20012;-86
2022/10/04 01:03:40;;;;;;;0.10;0.10;;;;;;;10.81;100.00;100496.16;6351174;22;20075;-76
2022/10/04 01:06:07;;;;;;;0.20;0.15;;;;;;;10.81;100.00;100500.94;6365961;22;20077;-76
2022/10/04 01:08:46;;;;;;;0.15;0.15;;;;;;;10.84;100.00;100502.88;6340574;22;19998;-76
2022/10/04 01:11:18;;;;;;;0.00;0.00;;;;;;;10.79;100.00;100498.59;6340086;22;20014;-76
2022/10/04 01:13:58;;;;;;;0.15;0.15;;;;;;;10.70;100.00;100490.06;6337986;22;20059;-76
2022/10/04 01:16:25;;;;;;;0.38;0.38;;;;;;;10.67;100.00;100491.69;6366321;22;20010;-76
2022/10/04 01:18:51;;;;;;;0.10;0.10;;;;;;;10.54;100.00;100481.66;6339319;22;20011;-76
2022/10/04 01:21:19;;;;;;;0.95;0.63;;;;;;;10.55;100.00;100488.78;6339076;22;20093;-76
2022/10/04 01:23:49;;;;;;;0.05;0.05;;;;;;;10.51;100.00;100474.19;6340220;22;20097;-79
2022/10/04 01:26:33;;;;;;;0.55;0.52;;;;;;;10.62;100.00;100481.09;6368954;22;20059;-76
2022/10/04 01:29:05;;;;;;;0.00;0.00;;;;;;;10.64;100.00;100475.09;6366911;22;20443;-76
2022/10/04 01:31:34;;;;;;;0.00;0.00;;;;;;;10.65;100.00;100485.00;6338779;22;20447;-76
2022/10/04 01:34:01;;;;;;;0.00;0.00;;;;;;;10.60;100.00;100480.72;6312683;22;20010;-76
2022/10/04 01:36:27;;;;;;;0.03;0.03;;;;;;;10.54;100.00;100476.91;6338754;22;20017;-76
2022/10/04 01:38:53;;;;;;;0.10;0.10;;;;;;;10.54;100.00;100481.66;6338632;22;20033;-78
2022/10/04 01:41:43;;;;;;;0.82;0.55;;;;;;;10.51;100.00;100476.97;6340346;22;20002;-78
2022/10/04 01:44:23;;;;;;;0.45;0.45;;;;;;;10.46;100.00;100474.69;6338189;22;20432;-77
2022/10/04 01:46:50;;;;;;;0.30;0.30;;;;;;;10.40;100.00;100477.16;6339014;22;20056;-77
2022/10/04 01:49:19;;;;;;;0.38;0.38;;;;;;;10.40;100.00;100477.16;6338909;22;20424;-77
2022/10/04 01:51:53;;;;;;;0.00;0.00;;;;;;;10.40;100.00;100465.28;6340336;22;20463;-77
2022/10/04 01:54:21;;;;;;;1.50;1.30;;;;;;;10.37;100.00;100477.22;6338556;22;20068;-77
2022/10/04 01:56:58;;;;;;;0.10;0.10;;;;;;;10.33;100.00;100471.75;6339396;22;20005;-77
2022/10/04 01:59:28;;;;;;;0.15;0.05;;;;;;;10.29;100.00;100466.28;6366727;22;20093;-76
2022/10/04 02:01:57;;;;;;;0.03;0.03;;;;;;;10.33;100.00;100471.75;6339433;22;20010;-76
2022/10/04 02:04:31;;;;;;;0.05;0.05;;;;;;;10.31;100.00;100473.38;6365987;22;20010;-76
2022/10/04 02:06:57;;;;;;;;;;;;;;;10.27;100.00;100468.69;6339124;22;20044;-76
2022/10/04 02:09:25;;;;;;;0.52;0.38;;;;;;;10.29;100.00;100465.50;6311895;22;19921;-76
2022/10/04 02:11:52;;;;;;;0.00;0.00;;;;;;;10.24;100.00;100455.66;6337967;22;20010;-76
2022/10/04 02:14:21;;;;;;;0.15;0.15;;;;;;;10.30;100.00;100467.06;6339351;22;20010;-75
2022/10/04 02:16:51;;;;;;;0.10;0.10;;;;;;;10.35;100.00;100471.34;6339417;22;20026;-75
2022/10/04 02:19:16;;;;;;;0.10;0.10;;;;;;;10.38;100.00;100462.16;6338361;22;20006;-76
2022/10/04 02:21:42;;;;;;;0.52;0.10;;;;;;;10.39;100.00;100463.72;6367098;22;20321;-76
2022/10/04 02:24:08;;;;;;;0.20;0.15;;;;;;;10.41;100.00;100464.84;6339907;22;20061;-75
2022/10/04 02:26:34;;;;;;;0.20;0.20;;;;;;;10.43;100.00;100462.47;6337091;22;20690;-76
2022/10/04 02:28:59;;;;;;;0.00;0.00;;;;;;;10.37;100.00;100464.16;6366247;22;20032;-76
2022/10/04 02:34:10;;;;;;;0.55;0.55;;;;;;;10.49;100.00;100457.19;6342792;22;20017;-78
2022/10/04 02:36:36;;;;;;;0.00;0.00;;;;;;;10.50;100.00;100459.53;6339358;22;20395;-78
2022/10/04 02:39:20;;;;;;;0.10;0.10;;;;;;;10.49;100.00;100452.41;6339739;22;20010;-78
2022/10/04 02:41:50;;;;;;;1.00;0.63;;;;;;;10.55;100.00;100467.38;6368622;22;20339;-78
2022/10/04 02:44:34;;;;;;;0.03;0.03;;;;;;;10.50;100.00;100456.75;6340146;22;20026;-75
2022/10/04 02:47:07;;;;;;;0.30;0.30;;;;;;;10.48;100.00;100464.72;6337864;22;20063;-76
2022/10/04 02:49:40;;;;;;;1.02;0.43;;;;;;;10.47;100.00;100471.50;6337870;22;20022;-77
2022/10/04 02:52:57;;;;;;;0.00;0.00;;;;;;;10.39;100.00;100470.06;6344118;22;20348;-78
2022/10/04 02:55:26;;;;;;;0.00;0.00;;;;;;;10.35;100.00;100466.56;6366271;22;20019;-76
2022/10/04 02:57:52;;;;;;;0.17;0.13;;;;;;;10.36;100.00;100467.34;6338417;22;20006;-78
2022/10/04 03:00:27;;;;;;;0.00;0.00;;;;;;;10.31;100.00;100465.84;6338662;22;20013;-75
2022/10/04 03:03:10;;;;;;;0.00;0.00;;;;;;;10.33;100.00;100454.31;6338152;22;20081;-76
2022/10/04 03:05:36;;;;;;;0.10;0.10;;;;;;;10.38;100.00;100462.94;6364320;22;20006;-75
2022/10/04 03:08:03;;;;;;;0.30;0.28;;;;;;;10.37;100.00;100463.34;6338528;22;20029;-76
2022/10/04 03:10:29;;;;;;;0.00;0.00;;;;;;;10.38;100.00;100462.94;6336687;22;20014;-75
2022/10/04 03:12:54;;;;;;;0.32;0.32;;;;;;;10.36;100.00;100461.78;6362503;22;20461;-75
2022/10/04 03:15:20;;;;;;;0.00;0.00;;;;;;;10.32;100.00;100448.00;6363207;22;20025;-76
2022/10/04 03:17:46;;;;;;;0.20;0.20;;;;;;;10.36;100.00;100453.47;6334870;22;20020;-76
2022/10/04 03:20:14;;;;;;;0.00;0.00;;;;;;;10.33;100.00;100459.88;6334727;22;20015;-76
2022/10/04 03:22:43;;;;;;;0.20;0.20;;;;;;;10.33;100.00;100460.66;6310563;22;20044;-77
2022/10/04 03:25:14;;;;;;;0.00;0.00;;;;;;;10.10;100.00;100442.06;6366477;22;20015;-76
2022/10/04 03:27:43;;;;;;;0.00;0.00;;;;;;;10.19;100.00;100452.63;6335151;22;20014;-77
2022/10/04 03:30:15;;;;;;;0.20;0.20;;;;;;;10.13;100.00;100452.28;6361235;22;20014;-75
2022/10/04 03:32:41;;;;;;;0.00;0.00;;;;;;;10.11;100.00;100456.69;6338505;22;20099;-76
2022/10/04 03:35:32;;;;;;;0.00;0.00;;;;;;;10.04;100.00;100454.03;6335773;22;20014;-77
2022/10/04 03:37:59;;;;;;;0.20;0.20;;;;;;;9.88;100.00;100454.72;6335358;22;20046;-76
2022/10/04 03:40:28;;;;;;;0.15;0.15;;;;;;;9.90;100.00;100460.63;6335259;22;20002;-77
2022/10/04 03:42:54;;;;;;;0.00;0.00;;;;;;;9.93;100.00;100462.53;6334750;22;20093;-78
2022/10/04 03:45:20;;;;;;;0.35;0.30;;;;;;;9.79;100.00;100454.47;6337351;22;20007;-77
2022/10/04 03:47:48;;;;;;;0.00;0.00;;;;;;;9.81;100.00;100463.94;6335573;22;20010;-76
2022/10/04 03:50:29;;;;;;;0.35;0.35;;;;;;;9.86;100.00;100481.28;6335868;22;20055;-77
2022/10/04 03:53:03;;;;;;;0.63;0.63;;;;;;;9.87;100.00;100471.78;6334078;22;20037;-77
2022/10/04 03:55:40;;;;;;;0.10;0.10;;;;;;;9.80;100.00;100461.56;6334632;22;20032;-76
2022/10/04 03:58:11;;;;;;;0.30;0.30;;;;;;;9.87;100.00;100466.22;6362502;22;20034;-76
2022/10/04 04:00:41;;;;;;;1.65;1.08;;;;;;;9.89;100.00;100464.59;6362119;22;20034;-76
2022/10/04 04:03:08;;;;;;;0.17;0.17;;;;;;;9.96;100.00;100470.00;6336519;22;20025;-77
2022/10/04 04:05:38;;;;;;;0.00;0.00;;;;;;;9.98;100.00;100466.81;6366089;22;20022;-76
2022/10/04 04:08:35;;;;;;;0.17;0.13;;;;;;;9.95;100.00;100457.34;6338495;22;20014;-77
2022/10/04 04:11:03;;;;;;;20.88;1.52;;;;;;;9.99;100.00;100474.69;6307016;22;20026;-77
2022/10/04 04:13:53;;;;;;;3.53;0.52;;;;;;;9.97;100.00;100473.56;6340270;22;20466;-78
2022/10/04 04:16:19;;;;;;;0.03;0.03;;;;;;;9.94;100.00;100471.66;6340264;22;20436;-77
2022/10/04 04:18:47;;;;;;;0.20;0.20;;;;;;;9.93;100.00;100467.31;6338935;22;20014;-78
2022/10/04 04:21:17;;;;;;;0.00;0.00;;;;;;;9.88;100.00;100465.78;6311603;22;20018;-77
2022/10/04 04:23:50;;;;;;;0.10;0.10;;;;;;;9.88;100.00;100465.78;6338825;22;20339;-76
2022/10/04 04:26:41;;;;;;;0.15;0.15;;;;;;;9.75;100.00;100479.47;6339527;22;20014;-76
2022/10/04 04:29:25;;;;;;;0.25;0.05;;;;;;;9.79;100.00;100477.41;6365683;22;20039;-76
2022/10/04 04:32:15;;;;;;;0.17;0.17;;;;;;;9.77;100.00;100484.59;6368159;22;20451;-77
2022/10/04 04:35:07;;;;;;;0.00;0.00;;;;;;;9.69;100.00;100469.28;6367557;22;20340;-76
2022/10/04 04:37:38;;;;;;;0.00;0.00;;;;;;;9.66;100.00;100481.22;6366026;22;20086;-77
2022/10/04 04:40:31;;;;;;;0.22;0.22;;;;;;;9.65;100.00;100483.19;6335954;22;20448;-77
2022/10/04 04:42:58;;;;;;;0.55;0.55;;;;;;;9.61;100.00;100485.25;6356435;22;20057;-77
2022/10/04 04:45:28;;;;;;;0.68;0.68;;;;;;;9.57;100.00;100484.50;6338387;22;20077;-77
2022/10/04 04:47:57;;;;;;;0.35;0.35;;;;;;;9.43;100.00;100478.38;6337864;22;20041;-77
2022/10/04 04:50:23;;;;;;;0.00;0.00;;;;;;;9.52;100.00;100484.97;6285385;22;20612;-77
2022/10/04 04:52:54;;;;;;;0.38;0.38;;;;;;;9.44;100.00;100466.13;6363705;22;20385;-76
2022/10/04 04:55:25;;;;;;;0.30;0.30;;;;;;;9.49;100.00;100485.81;6312133;22;20015;-76
2022/10/04 04:57:54;;;;;;;0.30;0.30;;;;;;;9.48;100.00;100489.78;6364325;22;20018;-78
2022/10/04 05:00:26;;;;;;;0.00;0.00;;;;;;;9.48;100.00;100483.47;6312127;22;20014;-76
2022/10/04 05:02:54;;;;;;;0.32;0.32;;;;;;;9.46;100.00;100491.41;6364047;22;20025;-76
2022/10/04 05:05:29;;;;;;;0.15;0.15;;;;;;;9.54;100.00;100496.44;6362908;22;20481;-77
2022/10/04 05:08:11;;;;;;;0.08;0.08;;;;;;;9.58;100.00;100499.16;6365216;22;20042;-78
2022/10/04 05:10:38;;;;;;;0.70;0.70;;;;;;;9.56;100.00;100505.09;6337150;22;20082;-77
2022/10/04 05:13:03;;;;;;;0.52;0.52;;;;;;;9.64;100.00;100508.53;6364581;22;20019;-76
2022/10/04 05:15:34;;;;;;;0.00;0.00;;;;;;;9.65;100.00;100515.66;6367668;22;20014;-76
2022/10/04 05:18:01;;;;;;;0.03;0.03;;;;;;;9.67;100.00;100519.56;6339681;22;20038;-78
2022/10/04 05:20:27;;;;;;;0.22;0.22;;;;;;;9.66;100.00;100506.16;6339114;22;20030;-76
2022/10/04 05:22:54;;;;;;;0.10;0.10;;;;;;;9.65;100.00;100510.91;6366129;22;20071;-76
2022/10/04 05:25:26;;;;;;;0.43;0.43;;;;;;;9.60;100.00;100488.41;6338930;22;20014;-77
2022/10/04 05:27:53;;;;;;;0.13;0.13;;;;;;;9.70;100.00;100515.19;6368274;22;20102;-77
2022/10/04 05:30:30;;;;;;;0.80;0.77;;;;;;;9.78;100.00;100514.66;6368644;22;20248;-77
2022/10/04 05:33:01;;;;;;;1.45;1.35;;;;;;;9.79;100.00;100516.19;6340649;22;20022;-76
2022/10/04 05:35:28;;;;;;;0.25;0.25;;;;;;;9.83;100.00;100518.91;6368678;22;20089;-78
2022/10/04 05:38:05;;;;;;;0.95;0.82;;;;;;;9.89;100.00;100519.22;6313719;22;19998;-77
2022/10/04 05:40:56;;;;;;;0.00;0.00;;;;;;;9.99;100.00;100521.81;6340386;22;20056;-79
2022/10/04 05:43:31;;;;;;;0.50;0.50;;;;;;;9.93;100.00;100498.56;6269809;22;20022;-79
2022/10/04 05:46:09;;;;;;;0.13;0.13;;;;;;;10.13;100.00;100513.28;6339910;22;20006;-76
2022/10/04 05:48:35;;;;;;;0.10;0.10;;;;;;;10.16;100.00;100518.00;6339351;22;20014;-78
2022/10/04 05:51:00;;;;;;;0.28;0.28;;;;;;;10.23;100.00;100517.84;6365245;22;20037;-76
2022/10/04 05:53:35;;;;;;;0.65;0.55;;;;;;;10.18;100.00;100496.19;6337442;22;20017;-77
2022/10/04 05:56:22;;;;;;;0.32;0.32;;;;;;;10.34;100.00;100512.16;6339453;22;20021;-78
2022/10/04 05:59:00;;;;;;;0.98;0.90;;;;;;;10.39;100.00;100524.75;6367050;22;20042;-79
2022/10/04 06:01:53;;;;;;;0.00;0.00;;;;;;;10.45;100.00;100511.94;6366986;22;20014;-78
2022/10/04 06:04:54;;;;;;;0.00;0.00;;;;;;;10.49;100.00;100524.53;6364375;22;20093;-77
2022/10/04 06:07:33;;;;;;;0.00;0.00;;;;;;;10.57;100.00;100525.19;6339056;22;20475;-77
2022/10/04 06:10:18;;;;;;;0.45;0.28;;;;;;;10.66;100.00;100533.72;6367180;22;20086;-77
2022/10/04 06:13:01;;;;;;;0.00;0.00;;;;;;;10.67;100.00;100532.53;6340158;22;20018;-78
2022/10/04 06:15:34;;;;;;;0.25;0.25;;;;;;;10.54;100.00;100535.16;6339120;22;20018;-78
2022/10/04 06:18:02;;;;;;;0.85;0.45;;;;;;;10.57;100.00;100525.19;6340462;22;20089;-78
2022/10/04 06:20:53;;;;;;;0.30;0.30;;;;;;;10.61;100.00;100537.00;6368050;22;20070;-77
2022/10/04 06:23:22;;;;;;;0.50;0.50;;;;;;;10.61;100.00;100537.78;6314190;22;20016;-78
2022/10/04 06:25:53;;;;;;;0.00;0.00;;;;;;;10.73;100.00;100547.47;6367955;22;20006;-76
2022/10/04 06:28:28;;;;;;;0.10;0.10;;;;;;;10.78;100.00;100555.31;6368017;22;20010;-78
2022/10/04 06:31:09;;;;;;;0.30;0.30;;;;;;;10.86;100.00;100565.06;6340582;22;20017;-78
2022/10/04 06:33:48;;;;;;;0.80;0.77;;;;;;;10.89;100.00;100553.09;6367045;22;20085;-78
2022/10/04 06:36:32;;;;;;;0.57;0.57;;;;;;;10.84;100.00;100561.16;6339963;22;20392;-77
2022/10/04 06:39:21;;;;;;;0.65;0.65;;;;;;;10.83;100.00;100554.03;6340542;22;20147;-77
2022/10/04 06:42:06;;;;;;;0.00;0.00;;;;;;;10.89;100.00;100568.97;6265886;22;20491;-77
2022/10/04 06:44:43;;;;;;;0.17;0.17;;;;;;;10.89;100.00;100568.97;6368217;22;20022;-77
2022/10/04 06:47:31;;;;;;;0.10;0.10;;;;;;;10.98;100.00;100572.75;6367899;22;20007;-77
2022/10/04 06:50:13;;;;;;;0.30;0.30;;;;;;;11.11;100.00;100568.13;6368353;22;20041;-78
2022/10/04 06:53:15;;;;;;;0.10;0.10;;;;;;;11.20;100.00;100568.31;6367697;22;20010;-78
2022/10/04 06:56:03;;;;;;;0.03;0.03;;;;;;;11.25;100.00;100567.03;6367438;22;20020;-77
2022/10/04 06:58:52;;;;;;;0.55;0.32;;;;;;;11.34;100.00;100583.13;6367838;22;20015;-78
2022/10/04 07:01:28;;;;;;;0.38;0.38;;;;;;;11.41;100.00;100582.97;6366613;22;20018;-77
2022/10/04 07:04:18;;;;;;;0.63;0.63;;;;;;;11.48;100.00;100593.94;6340194;22;20010;-78
2022/10/04 07:06:51;;;;;;;0.00;0.00;;;;;;;11.52;100.00;100577.97;6367852;22;20014;-78
2022/10/04 07:09:25;;;;;;;0.00;0.00;;;;;;;11.58;100.00;100590.13;6366780;22;20488;-78
2022/10/04 07:12:07;;;;;;;0.45;0.40;;;;;;;11.66;100.00;100594.31;6339970;22;20038;-78
2022/10/04 07:14:42;;;;;;;1.40;1.30;;;;;;;11.65;100.00;100603.88;6340349;22;20394;-78
2022/10/04 07:17:11;;;;;;;0.00;0.00;;;;;;;11.66;100.00;100599.88;6367508;22;20010;-77
2022/10/04 07:19:51;;;;;;;0.30;0.30;;;;;;;11.67;100.00;100607.00;6339711;22;20499;-78
2022/10/04 07:22:25;;;;;;;0.55;0.40;;;;;;;11.82;100.00;100610.28;6339573;22;20608;-78
2022/10/04 07:25:13;;;;;;;0.70;0.45;;;;;;;11.95;100.00;100611.97;6313557;22;20034;-78
2022/10/04 07:31:00;;;;;;;0.30;0.20;;;;;;;11.90;100.00;100609.69;6340782;22;20015;-78
2022/10/04 07:33:27;;;;;;;0.10;0.10;;;;;;;12.00;100.00;100600.31;6366828;22;20075;-78
2022/10/04 07:36:20;;;;;;;0.00;0.00;;;;;;;12.05;100.00;100607.38;6367857;22;20002;-78
2022/10/04 07:39:00;;;;;;;0.43;0.43;;;;;;;11.90;100.00;100604.13;6333179;22;20452;-78
2022/10/04 07:41:56;;;;;;;1.45;1.35;;;;;;;12.00;100.00;100603.09;6339307;22;20010;-78
2022/10/04 07:44:31;;;;;;;0.00;0.00;;;;;;;12.12;100.00;100605.19;6326870;22;20026;-78
2022/10/04 07:47:19;;;;;;;0.00;0.00;;;;;;;12.20;100.00;100613.38;6368323;22;20011;-78
2022/10/04 07:49:45;;;;;;;1.00;0.57;;;;;;;12.00;100.00;100611.44;6340562;22;20305;-78
2022/10/04 07:52:40;;;;;;;0.32;0.20;;;;;;;12.04;100.00;100606.59;6368826;22;20025;-78
2022/10/04 07:55:15;;;;;;;0.10;0.10;;;;;;;12.09;100.00;100600.47;6341674;22;20010;-78
2022/10/04 07:57:47;;;;;;;0.30;0.30;;;;;;;12.25;100.00;100604.50;6341003;22;20014;-78
2022/10/04 08:00:17;;;;;;;0.10;0.10;;;;;;;12.29;100.00;100613.56;6341418;22;20083;-78
2022/10/04 08:03:29;;;;;;;0.75;0.63;;;;;;;12.35;100.00;100609.00;6369142;22;20018;-78
2022/10/04 08:06:13;;;;;;;0.45;0.45;;;;;;;12.50;100.00;100619.34;6363111;22;20026;-78
2022/10/04 08:08:54;;;;;;;0.25;0.25;;;;;;;12.52;100.00;100618.91;6368159;22;20010;-78
2022/10/04 08:11:44;;;;;;;0.00;0.00;;;;;;;12.52;100.00;100613.34;6369177;22;20041;-77
2022/10/04 08:14:51;;;;;;;0.10;0.10;;;;;;;12.63;100.00;100622.22;6368931;22;20348;-77
2022/10/04 08:17:20;;;;;;;0.47;0.38;;;;;;;12.68;100.00;100618.13;6368698;22;20010;-77
2022/10/04 08:19:53;;;;;;;0.15;0.15;;;;;;;12.83;100.00;100619.31;6368877;22;20011;-77
2022/10/04 08:22:25;;;;;;;0.47;0.47;;;;;;;13.02;100.00;100632.31;6368749;22;20066;-77
2022/10/04 08:25:02;;;;;;;0.10;0.10;;;;;;;13.11;100.00;100624.13;6369135;22;20021;-77
2022/10/04 08:31:11;;;;;;;0.17;0.17;;;;;;;13.56;100.00;100621.25;6369435;22;20461;-77
2022/10/04 08:34:02;;;;;;;0.10;0.10;;;;;;;13.59;95.02;100612.00;6368299;22;20017;-77
2022/10/04 08:36:47;;;;;;;0.30;0.30;;;;;;;13.76;93.83;100623.84;6369085;22;20014;-77
2022/10/04 08:39:34;;;;;;;1.48;0.47;;;;;;;13.91;93.49;100620.16;6340823;22;20066;-77
2022/10/04 08:42:27;;;;;;;0.20;0.20;;;;;;;14.08;89.81;100628.41;6369035;22;20014;-77
2022/10/04 08:45:19;;;;;;;0.20;0.20;;;;;;;14.22;87.87;100625.19;6369445;22;20072;-77
2022/10/04 08:47:44;;;;;;;0.15;0.15;;;;;;;14.21;83.79;100627.19;6367898;22;20458;-76
2022/10/04 08:50:47;;;;;;;0.05;0.05;;;;;;;14.13;84.93;100636.25;6340834;22;20018;-77
2022/10/04 08:53:41;;;;;;;0.20;0.10;;;;;;;14.11;84.59;100639.50;6368576;22;20038;-76
2022/10/04 08:56:25;;;;;;;0.00;0.00;;;;;;;14.18;85.72;100644.06;6341142;22;20006;-78
2022/10/04 08:59:28;;;;;;;0.20;0.20;;;;;;;14.32;84.51;100640.78;6367732;22;20010;-78
2022/10/04 09:02:12;;;;;;;0.40;0.20;;;;;;;14.33;84.33;100639.56;6340689;22;20010;-78
2022/10/04 09:04:51;;;;;;;2.70;0.63;;;;;;;14.40;85.32;100639.38;6368919;22;20504;-78
2022/10/04 09:07:37;;;;;;;0.03;0.00;;;;;;;14.39;83.65;100632.25;6339940;22;20499;-78
2022/10/04 09:10:18;;;;;;;0.00;0.00;;;;;;;14.52;83.40;100641.34;6368707;22;20018;-78
2022/10/04 09:12:52;;;;;;;0.30;0.20;;;;;;;14.53;84.27;100637.34;6368864;22;20348;-78
2022/10/04 09:15:25;;;;;;;0.10;0.10;;;;;;;14.48;83.49;100637.91;6368209;22;20034;-78
2022/10/04 09:18:21;;;;;;;0.05;0.05;;;;;;;14.59;85.31;100635.56;6367620;22;20047;-78
2022/10/04 09:21:02;;;;;;;0.17;0.15;;;;;;;14.78;83.60;100634.50;6368632;22;20010;-78
2022/10/04 09:23:30;;;;;;;0.20;0.17;;;;;;;14.94;80.36;100639.13;6340530;22;20056;-78
2022/10/04 09:26:21;;;;;;;0.08;0.08;;;;;;;15.21;81.41;100624.59;6368854;22;20469;-78
2022/10/04 09:29:12;;;;;;;0.13;0.13;;;;;;;15.45;80.25;100622.91;6367457;22;20013;-78
2022/10/04 09:31:57;;;;;;;1.75;0.40;;;;;;;15.40;80.67;100629.09;6341312;22;20017;-78
2022/10/04 09:34:54;;;;;;;0.10;0.10;;;;;;;15.50;81.16;100641.13;6368204;22;20018;-78
2022/10/04 09:37:35;;;;;;;0.10;0.10;;;;;;;15.55;80.48;100629.38;6367953;22;20040;-78
2022/10/04 09:40:07;;;;;;;0.15;0.15;;;;;;;15.74;79.84;100634.59;6368711;22;20010;-78
2022/10/04 09:42:51;;;;;;;0.13;0.13;;;;;;;15.95;76.74;100632.22;6368067;22;20341;-78
2022/10/04 09:45:29;;;;;;;0.20;0.20;;;;;;;15.86;76.41;100622.53;6368181;22;20010;-78
2022/10/04 09:48:07;;;;;;;0.68;0.68;;;;;;;16.00;74.63;100614.84;6340147;22;20588;-78
2022/10/04 09:50:51;;;;;;;0.17;0.17;;;;;;;15.99;73.12;100630.84;6368136;22;20021;-78
2022/10/04 09:53:41;;;;;;;0.15;0.10;;;;;;;16.17;73.32;100632.94;6368230;22;20011;-78
2022/10/04 09:56:38;;;;;;;0.00;0.00;;;;;;;16.11;74.04;100634.78;6368613;22;20018;-78
2022/10/04 09:59:42;;;;;;;0.43;0.35;;;;;;;16.15;74.67;100633.38;6366127;22;20401;-78
2022/10/04 10:02:43;;;;;;;0.03;0.03;;;;;;;16.11;74.23;100640.38;6362157;22;20447;-78
2022/10/04 10:05:27;;;;;;;0.10;0.10;;;;;;;16.25;75.02;100634.22;6368187;22;20024;-78
2022/10/04 10:07:55;;;;;;;;;;;;;;;16.17;71.93;100635.75;6368391;22;20393;-78
2022/10/04 10:13:53;;;;;;;0.52;0.30;;;;;;;16.31;73.51;100637.94;6367890;22;20089;-78
2022/10/04 10:16:53;;;;;;;0.45;0.32;;;;;;;16.43;72.66;100633.47;6367485;22;20082;-78
2022/10/04 10:19:37;;;;;;;0.30;0.20;;;;;;;16.40;72.15;100628.81;6340016;22;20447;-79
2022/10/04 10:22:21;;;;;;;0.20;0.20;;;;;;;16.53;73.16;100633.03;6367908;22;20063;-78
2022/10/04 10:25:14;;;;;;;0.10;0.10;;;;;;;16.65;72.24;100634.97;6367932;22;20022;-78
2022/10/04 10:28:02;;;;;;;0.10;0.10;;;;;;;16.62;71.62;100633.06;6339664;22;20471;-78
2022/10/04 10:30:51;;;;;;;0.52;0.52;;;;;;;16.79;72.02;100633.56;6367685;22;20010;-78
2022/10/04 10:33:54;;;;;;;0.00;0.00;;;;;;;16.79;72.68;100628.75;6367489;22;20014;-78
2022/10/04 10:36:59;;;;;;;0.20;0.20;;;;;;;16.82;71.85;100629.06;6367591;22;20014;-78
2022/10/04 10:39:43;;;;;;;0.10;0.10;;;;;;;16.83;71.61;100619.41;6366925;22;20010;-78
2022/10/04 10:42:11;;;;;;;0.03;0.03;;;;;;;16.88;69.08;100618.78;6368532;22;20022;-78
2022/10/04 10:45:14;;;;;;;0.10;0.10;;;;;;;16.84;69.06;100623.78;6367316;22;20347;-79
2022/10/04 10:47:50;;;;;;;0.15;0.15;;;;;;;16.76;69.90;100615.69;6339867;22;20071;-78
2022/10/04 10:50:27;;;;;;;0.03;0.03;;;;;;;16.90;69.86;100616.31;6338551;22;20022;-78
2022/10/04 10:53:28;;;;;;;0.00;0.00;;;;;;;17.11;70.52;100620.97;6340542;22;20014;-78
2022/10/04 10:56:07;;;;;;;0.00;0.00;;;;;;;17.31;67.73;100623.31;6340710;22;20444;-78
2022/10/04 10:58:45;;;;;;;0.00;0.00;;;;;;;17.19;67.13;100625.78;6337808;22;20359;-78
2022/10/04 11:01:35;;;;;;;0.20;0.20;;;;;;;17.06;65.48;100618.81;6367167;22;20014;-78
2022/10/04 11:04:22;;;;;;;0.28;0.15;;;;;;;17.12;68.29;100623.31;6367269;22;20030;-78
2022/10/04 11:07:23;;;;;;;0.00;0.00;;;;;;;17.53;65.61;100619.06;6339045;22;20490;-78
2022/10/04 11:10:13;;;;;;;0.20;0.20;;;;;;;17.68;65.93;100607.97;6340019;22;20025;-78
2022/10/04 11:12:53;;;;;;;0.10;0.10;;;;;;;18.13;64.03;100612.63;6339769;22;20022;-76
2022/10/04 11:15:53;;;;;;;0.05;0.05;;;;;;;18.15;63.80;100618.56;6366972;22;20017;-77
2022/10/04 11:18:44;;;;;;;0.10;0.10;;;;;;;17.99;62.25;100611.31;6367370;22;20010;-78
2022/10/04 11:21:25;;;;;;;0.10;0.10;;;;;;;17.77;63.43;100621.19;6340217;22;20017;-77
2022/10/04 11:24:02;;;;;;;5.57;0.52;;;;;;;17.64;64.30;100621.38;6369693;22;20447;-77
2022/10/04 11:26:28;;;;;;;0.10;0.10;;;;;;;17.92;64.09;100613.66;6368303;22;20045;-77
2022/10/04 11:29:09;;;;;;;0.45;0.45;;;;;;;17.68;64.32;100619.19;6369599;22;19998;-77
2022/10/04 11:31:44;;;;;;;0.30;0.28;;;;;;;17.98;63.76;100620.97;6341010;22;20463;-78
2022/10/04 11:34:47;;;;;;;0.00;0.00;;;;;;;17.66;64.88;100616.09;6369127;22;20015;-78
2022/10/04 11:37:33;;;;;;;0.10;0.10;;;;;;;17.81;65.08;100599.34;6369995;22;20014;-78
2022/10/04 11:40:08;;;;;;;0.03;0.03;;;;;;;18.30;64.96;100622.22;6340631;22;20508;-78
2022/10/04 11:43:11;;;;;;;0.20;0.20;;;;;;;18.11;63.67;100612.34;6312975;22;20443;-78
2022/10/04 11:45:45;;;;;;;0.00;0.00;;;;;;;18.02;65.75;100601.16;6367513;22;20042;-78
2022/10/04 11:48:20;;;;;;;2.38;0.40;;;;;;;18.15;64.41;100607.34;6366729;22;20018;-78
2022/10/04 11:50:50;;;;;;;0.00;0.00;;;;;;;17.94;63.90;100602.75;6338043;22;20075;-77
2022/10/04 11:53:24;;;;;;;1.60;0.52;;;;;;;17.95;65.29;100609.91;6367163;22;20014;-78
2022/10/04 11:56:06;;;;;;;0.52;0.20;;;;;;;17.96;65.69;100611.47;6366903;22;20021;-78
2022/10/04 11:59:02;;;;;;;0.30;0.13;;;;;;;17.81;65.10;100616.19;6312577;22;20395;-77
2022/10/04 12:02:01;;;;;;;0.00;0.00;;;;;;;17.70;64.49;100614.69;6367097;22;20077;-78
2022/10/04 12:05:12;;;;;;;0.03;0.03;;;;;;;17.55;62.15;100616.53;6366372;22;20025;-78
2022/10/04 12:08:10;;;;;;;1.55;0.63;;;;;;;17.48;63.24;100619.69;6361444;22;20054;-77
2022/10/04 12:10:38;;;;;;;0.22;0.20;;;;;;;17.16;62.22;100623.94;6366852;22;20018;-78
2022/10/04 12:13:32;;;;;;;0.00;0.00;;;;;;;17.15;62.12;100621.59;6338245;22;20033;-78
2022/10/04 12:16:39;;;;;;;0.00;0.00;;;;;;;17.08;61.91;100617.09;6341200;22;20067;-78
2022/10/04 12:19:24;;;;;;;0.52;0.52;;;;;;;17.10;63.06;100611.03;6366561;22;20014;-78
2022/10/04 12:21:59;;;;;;;0.00;0.00;;;;;;;17.14;63.44;100614.44;6366446;22;20325;-78
2022/10/04 12:25:10;;;;;;;0.20;0.15;;;;;;;17.16;62.72;100609.91;6366416;22;20356;-77
2022/10/04 12:28:11;;;;;;;0.10;0.10;;;;;;;17.12;62.83;100603.69;6366744;22;20018;-78
2022/10/04 12:30:55;;;;;;;0.28;0.25;;;;;;;17.16;63.60;100606.31;6335625;22;20062;-78